Pagrindinis puslapis
METAR-TAF:

METAR-TAF

Oro uostai :

Liubekas, Vokietija

platuma: 53-49N, ilguma: 010-42E, Aukštis: 14 m

Dabartinis oras

Ataskaita buvo paskelbta 8 valandos ir 33 minutes, ne 18:50 UTC
Vėjas 21 kt iš Pietų/Pietvakarių su gūsio iki 34 kt
Temperatūra 17°C
Drėgmė 55%
Slėgis 991 hPa
Matomumas 10 km arba daugiau
Su prošvaistėmis ne aukštis 4400 ft

METAR: EDHL 161850Z 21021G34KT 9999 BKN044 17/08 Q0991

Laikas: 04:23 (03:23 UTC)

Prognozė

Ataskaita buvo paskelbta 10 valandos ir 23 minutes, ne 17:00 UTC
Prognozė galioja nuo 16 metu 18 UTC su 16 metu 21 UTC
Vėjas 20 kt iš Pietų/Pietvakarių su gūsio iki 30 kt
Matomumas 10 km arba daugiau
Su prošvaistėmis ne aukštis 3000 ft
Laikinai
nuo 16 metu 18 UTC su 16 metu 21 UTC
Vėjas 25 kt iš Pietvakarių su gūsio iki 40 kt
Laikinai
nuo 16 metu 20 UTC su 16 metu 21 UTC
Matomumas: 3500 m
Su prošvaistėmis ne aukštis 800 ft
lietus

TAF: EDHL 161700Z 1618/1621 21020G30KT 9999 BKN030 TEMPO 1618/1621 23025G40KT TEMPO 1620/1621 3500 RA BKN008

Orai ataskaitas ir orų prognozės (METAR, TAF).

turimą stotys yra geltonos ir raudonos taškus žemėlapyje.

Perkelti pele per norėdami pamatyti stoties vardą.

Tada spustelėkite, norėdami matyti oro stebėjimo ir prognozės.

Norėdami pakeisti žemėlapį: spustelėkite ant žalios mygtukų su juodo kryžiaus žemyn,; žalią mygtuką su brūkšneliu, jei norite nutolinti; arba žalių rodyklių gretimoms žemėlapius.


METAR-TAF: